»·PEaware :: FFT2946 KSAN-KPHX

FFT2946 :: KSAN-KPHX

FLIGHT INFORMATION

Flight Status: Arrived
Operator:
Frontier Airlines
More flights by this operator :: More flights under this callsign
Pilot: Josh T. (20631)
Aircraft: AIRBUS A320
(A320)
More flights by this aircraft type
Origin: KSAN San Diego Intl-Lindbergh
United States
Destination: KPHX Phoenix Sky Harbor Intl
United States
More flights between these airports :: More routes between these airports
Route: ZZOOO2 IPL J18 BZA HOGGZ HYDRR1
File this flight plan on PilotEdge
Remarks:
Altitude:
(Current/Filed)
35,000ft
Speed:
(Current/Filed)
450kts
Departed: 30-Dec-19 06:53 PM
Arrived: 30-Dec-19 07:43 PM
Distance/Time
Traveled:
264nm/0:50
Distance/Time
To Go:
Arrived

Flight Plot

Page will automatically refresh every two minutes.

Flight plan parsing failed; only flown route is shown


Map Options




Map Legend


Flown Route
Filed Route
Departure Airport
Arrival Airport
Navaid (VOR, NDB)
Fix

Horizontal Profiles

Position Reports

Time Latitude Longitude Heading Altitude Ground
Speed
30-Dec-19 17:43 32.732988 -117.198977 96 29ft 0kts
30-Dec-19 17:44 32.732988 -117.198977 96 29ft 0kts
30-Dec-19 17:45 32.732988 -117.198977 96 29ft 0kts
30-Dec-19 17:47 32.732988 -117.198977 96 29ft 0kts
30-Dec-19 17:48 32.732988 -117.198977 96 29ft 0kts
30-Dec-19 17:49 32.732988 -117.198977 96 29ft 0kts
30-Dec-19 17:50 32.732988 -117.198977 96 29ft 0kts
30-Dec-19 17:51 32.732988 -117.198977 96 29ft 0kts
30-Dec-19 17:52 32.732988 -117.198977 96 29ft 0kts
30-Dec-19 17:53 32.732988 -117.198977 96 29ft 0kts
30-Dec-19 17:54 32.732988 -117.198977 96 29ft 0kts
30-Dec-19 17:55 32.732988 -117.198977 96 29ft 0kts
30-Dec-19 17:56 32.732988 -117.198977 96 29ft 0kts
30-Dec-19 17:57 32.732988 -117.198977 96 29ft 0kts
30-Dec-19 17:58 32.732988 -117.198977 96 29ft 0kts
30-Dec-19 17:59 32.732988 -117.198977 96 29ft 0kts
30-Dec-19 18:00 32.732988 -117.198977 96 29ft 0kts
30-Dec-19 18:01 32.732988 -117.198977 96 29ft 0kts
30-Dec-19 18:02 32.732988 -117.198977 96 29ft 0kts
30-Dec-19 18:03 32.732988 -117.198977 96 29ft 0kts
30-Dec-19 18:04 32.732988 -117.198977 96 29ft 0kts
30-Dec-19 18:05 32.732988 -117.198977 96 29ft 0kts
30-Dec-19 18:06 32.732988 -117.198977 96 29ft 0kts
30-Dec-19 18:07 32.732988 -117.198977 96 29ft 0kts
30-Dec-19 18:08 32.732988 -117.198977 96 29ft 0kts
30-Dec-19 18:08 32.732988 -117.198977 96 29ft 0kts
30-Dec-19 18:10 32.732988 -117.198977 96 29ft 0kts
30-Dec-19 18:11 32.732988 -117.198977 96 29ft 0kts
30-Dec-19 18:11 32.732988 -117.198977 96 29ft 0kts
30-Dec-19 18:12 32.732988 -117.198977 96 29ft 0kts
30-Dec-19 18:14 32.732988 -117.198977 96 29ft 0kts
30-Dec-19 18:14 32.732988 -117.198977 96 29ft 0kts
30-Dec-19 18:15 32.732988 -117.198977 96 29ft 0kts
30-Dec-19 18:16 32.732988 -117.198977 96 29ft 0kts
30-Dec-19 18:18 32.732988 -117.198977 96 29ft 0kts
30-Dec-19 18:18 32.732988 -117.198977 96 29ft 0kts
30-Dec-19 18:19 32.732988 -117.198977 96 29ft 0kts
30-Dec-19 18:20 32.732988 -117.198977 96 29ft 0kts
30-Dec-19 18:21 32.732988 -117.198977 96 29ft 0kts
30-Dec-19 18:22 32.732988 -117.198977 96 29ft 0kts
30-Dec-19 18:23 32.732988 -117.198977 96 29ft 0kts
30-Dec-19 18:24 32.732988 -117.198977 96 29ft 0kts
30-Dec-19 18:25 32.732988 -117.198977 96 29ft 0kts
30-Dec-19 18:26 32.732988 -117.198980 96 29ft 0kts
30-Dec-19 18:27 32.732840 -117.199546 324 29ft 0kts
30-Dec-19 18:28 32.732840 -117.199546 324 29ft 0kts
30-Dec-19 18:29 32.732840 -117.199546 324 29ft 0kts
30-Dec-19 18:30 32.732841 -117.199547 324 29ft 0kts
30-Dec-19 18:31 32.732841 -117.199547 324 29ft 0kts
30-Dec-19 18:32 32.733049 -117.199742 320 29ft 2kts
30-Dec-19 18:33 32.733444 -117.199849 7 29ft 3kts
30-Dec-19 18:34 32.734069 -117.199690 12 29ft 0kts
30-Dec-19 18:35 32.734070 -117.199690 12 29ft 0kts
30-Dec-19 18:36 32.734764 -117.199305 62 29ft 10kts
30-Dec-19 18:37 32.733851 -117.195160 105 29ft 16kts
30-Dec-19 18:38 32.732360 -117.189011 105 29ft 22kts
30-Dec-19 18:39 32.730512 -117.181361 105 29ft 25kts
30-Dec-19 18:40 32.729533 -117.176770 74 29ft 0kts
30-Dec-19 18:41 32.729533 -117.176769 74 29ft 0kts
30-Dec-19 18:42 32.729533 -117.176769 74 29ft 0kts
30-Dec-19 18:43 32.729533 -117.176769 74 29ft 0kts
30-Dec-19 18:44 32.729533 -117.176768 74 29ft 0kts
30-Dec-19 18:45 32.729533 -117.176768 74 29ft 0kts
30-Dec-19 18:46 32.729533 -117.176768 74 29ft 0kts
30-Dec-19 18:47 32.729533 -117.176767 74 29ft 0kts
30-Dec-19 18:48 32.729533 -117.176767 74 29ft 0kts
30-Dec-19 18:49 32.729533 -117.176767 74 29ft 0kts
30-Dec-19 18:50 32.729563 -117.176641 73 29ft 4kts
30-Dec-19 18:51 32.730402 -117.176661 285 29ft 13kts
30-Dec-19 18:52 32.740454 -117.216956 287 1835ft 157kts
30-Dec-19 18:53 32.754192 -117.274709 287 3585ft 210kts
30-Dec-19 18:54 32.721222 -117.328241 170 5503ft 264kts
30-Dec-19 18:55 32.665245 -117.273499 136 8749ft 273kts
30-Dec-19 18:56 32.625282 -117.198822 94 11271ft 305kts
30-Dec-19 18:57 32.618068 -117.091101 97 13588ft 338kts
30-Dec-19 18:58 32.607392 -116.977566 96 16077ft 355kts
30-Dec-19 18:59 32.612028 -116.858776 76 18307ft 372kts
30-Dec-19 19:00 32.634662 -116.736684 84 20303ft 386kts
30-Dec-19 19:01 32.646298 -116.607612 85 22098ft 400kts
30-Dec-19 19:02 32.659450 -116.474701 86 23127ft 410kts
30-Dec-19 19:03 32.672397 -116.338524 87 24666ft 422kts
30-Dec-19 19:04 32.685729 -116.197926 87 26020ft 435kts
30-Dec-19 19:05 32.699262 -116.052989 87 27263ft 446kts
30-Dec-19 19:06 32.712978 -115.904517 88 28293ft 460kts
30-Dec-19 19:07 32.727024 -115.751720 88 29348ft 471kts
30-Dec-19 19:08 32.741138 -115.595384 88 30487ft 476kts
30-Dec-19 19:09 32.750981 -115.439149 93 31726ft 474kts
30-Dec-19 19:10 32.754155 -115.282524 93 32864ft 475kts
30-Dec-19 19:11 32.757855 -115.125272 93 33885ft 477kts
30-Dec-19 19:12 32.761164 -114.967409 93 34848ft 478kts
30-Dec-19 19:13 32.764304 -114.810642 93 35074ft 473kts
30-Dec-19 19:14 32.767206 -114.653790 93 35070ft 476kts
30-Dec-19 19:15 32.769702 -114.496414 94 35091ft 477kts
30-Dec-19 19:16 32.771754 -114.338671 94 35080ft 475kts
30-Dec-19 19:17 32.773616 -114.182483 94 35001ft 474kts
30-Dec-19 19:18 32.779232 -114.025220 87 35010ft 480kts
30-Dec-19 19:19 32.797343 -113.867653 87 35002ft 484kts
30-Dec-19 19:20 32.814774 -113.708382 82 35021ft 489kts
30-Dec-19 19:21 32.897345 -113.580060 44 35088ft 497kts
30-Dec-19 19:22 32.987211 -113.457927 50 34548ft 480kts
30-Dec-19 19:23 33.075375 -113.340049 49 32175ft 472kts
30-Dec-19 19:24 33.162579 -113.221388 50 28830ft 463kts
30-Dec-19 19:25 33.245038 -113.109722 50 26349ft 433kts
30-Dec-19 19:26 33.278849 -112.985175 96 23777ft 388kts
30-Dec-19 19:27 33.279313 -112.856829 90 20867ft 381kts
30-Dec-19 19:28 33.310133 -112.740421 65 19169ft 350kts
30-Dec-19 19:29 33.348729 -112.640593 68 17389ft 332kts
30-Dec-19 19:30 33.388764 -112.535622 67 14137ft 354kts
30-Dec-19 19:31 33.426944 -112.428027 77 11416ft 341kts
30-Dec-19 19:32 33.428811 -112.320308 91 9319ft 308kts
30-Dec-19 19:33 33.398777 -112.236638 153 7320ft 281kts
30-Dec-19 19:34 33.335266 -112.265018 250 5577ft 256kts
30-Dec-19 19:35 33.362916 -112.320197 3 4292ft 210kts
30-Dec-19 19:36 33.403540 -112.279672 57 4040ft 199kts
30-Dec-19 19:37 33.434946 -112.225024 55 4051ft 199kts
30-Dec-19 19:38 33.440840 -112.161238 87 3365ft 192kts
30-Dec-19 19:39 33.440825 -112.101829 88 2379ft 159kts
30-Dec-19 19:40 33.440829 -112.055968 89 1653ft 128kts
30-Dec-19 19:41 33.440838 -112.014978 89 1149ft 84kts
30-Dec-19 19:42 33.439891 -112.006864 117 1149ft 0kts
30-Dec-19 19:43 33.439831 -112.006713 113 1149ft 6kts
30-Dec-19 19:44 33.438932 -112.004673 180 1149ft 12kts
30-Dec-19 19:45 33.434113 -112.004660 179 1149ft 15kts
30-Dec-19 19:46 33.432842 -112.006093 271 1149ft 10kts
30-Dec-19 19:47 33.432843 -112.009750 270 1149ft 3kts
30-Dec-19 19:48 33.434072 -112.009682 82 1149ft 4kts
30-Dec-19 19:49 33.434099 -112.009456 82 1149ft 0kts
30-Dec-19 19:50 33.434099 -112.009456 82 1149ft 0kts
30-Dec-19 19:51 33.434099 -112.009456 82 1149ft 0kts
30-Dec-19 19:52 33.434099 -112.009456 82 1149ft 0kts
30-Dec-19 19:53 33.434099 -112.009456 82 1149ft 0kts

Navigation Log

Ident Type
Flight plan parsing failed, navigation log unavailable